Time;durP1;ratioP1;P1;durP2;ratioP2;P2;SDS_P1;SDS_P2;PMS_P1;PMS_P2;Temp;Humidity;BMP_temperature;BMP_pressure;BME280_temperature;BME280_humidity;BME280_pressure;Samples;Min_cycle;Max_cycle;Signal;HPM_P1;HPM_P2
2023/11/27 00:00:29;;;;;;;19.00;6.05;;;;;;;-0.64;95.42;100629.81;6199340;22;20103;-82
2023/11/27 00:03:09;;;;;;;13.15;4.90;;;1.00;99.90;;;-0.66;95.85;100626.38;6122545;23;20016;-83
2023/11/27 00:06:12;;;;;;;;;;;;;;;;;;;;;
2023/11/27 00:09:18;;;;;;;16.30;6.35;;;;;;;-0.63;95.43;100620.31;6029880;23;20113;-82
2023/11/27 00:12:09;;;;;;;8.35;5.22;;;;;;;-0.66;95.44;100623.78;6063244;23;20028;-83
2023/11/27 00:14:40;;;;;;;11.40;5.30;;;1.00;99.90;;;-0.69;95.32;100621.22;6132781;23;20016;-83
2023/11/27 00:17:48;;;;;;;16.52;4.30;;;1.00;99.90;;;-0.69;95.13;100616.06;6038659;23;20793;-82
2023/11/27 00:20:30;;;;;;;10.80;5.45;;;;;;;-0.68;95.77;100625.50;6038512;23;20021;-82
2023/11/27 00:23:27;;;;;;;14.05;5.75;;;;;;;-0.69;95.13;100630.69;6092211;23;20021;-82
2023/11/27 00:26:06;;;;;;;11.02;5.55;;;;;;;-0.71;95.40;100628.13;6155013;22;20020;-82
2023/11/27 00:28:32;;;;;;;13.90;5.43;;;0.90;99.90;;;-0.72;94.84;100621.22;6115845;22;20051;-81
2023/11/27 00:31:10;;;;;;;12.00;5.68;;;0.90;99.90;;;-0.70;95.40;100616.03;6131037;22;20020;-82
2023/11/27 00:36:42;;;;;;;12.90;6.50;;;0.90;99.90;;;-0.66;95.17;100610.00;6153436;22;20020;-81
2023/11/27 00:39:09;;;;;;;12.27;5.47;;;0.90;99.90;;;-0.68;95.22;100611.72;6175508;22;20024;-81
2023/11/27 00:41:49;;;;;;;11.45;5.30;;;;;;;-0.71;94.40;100607.44;6188599;23;20258;-81
2023/11/27 00:44:58;;;;;;;9.98;5.18;;;;;;;-0.76;94.42;100600.53;6146419;22;20033;-82
2023/11/27 00:47:39;;;;;;;13.82;5.18;;;0.80;99.90;;;-0.86;94.33;100597.97;6179493;23;20053;-82
2023/11/27 00:50:20;;;;;;;9.55;5.20;;;0.70;99.90;;;-0.88;93.99;100602.28;6148284;23;20048;-80
2023/11/27 00:52:57;;;;;;;10.18;5.57;;;0.70;99.90;;;-0.95;93.59;100602.28;6158303;23;20025;-79
2023/11/27 00:55:59;;;;;;;12.93;5.20;;;0.70;99.90;;;-0.97;93.58;100607.47;6152110;23;20035;-80
2023/11/27 00:58:40;;;;;;;11.68;5.55;;;0.60;99.90;;;-1.04;93.78;100603.16;6042052;23;20537;-80
2023/11/27 01:01:30;;;;;;;10.98;5.15;;;;;;;-1.04;94.21;100613.50;6102179;23;20382;-80
2023/11/27 01:06:39;;;;;;;8.45;5.18;;;0.60;99.90;;;-1.02;94.28;100613.50;6164318;22;19927;-80
2023/11/27 01:09:21;;;;;;;12.88;5.90;;;0.60;99.90;;;-1.03;94.18;100617.81;6194402;23;20024;-80
2023/11/27 01:12:11;;;;;;;13.85;5.93;;;0.60;99.90;;;-1.01;93.79;100618.69;6134562;23;20630;-80
2023/11/27 01:14:37;;;;;;;10.60;5.50;;;0.60;99.90;;;-1.03;94.17;100615.25;6192051;23;20027;-79
2023/11/27 01:17:03;;;;;;;14.30;6.70;;;0.50;99.90;;;-1.05;94.45;100609.22;6198141;23;20099;-80
2023/11/27 01:19:41;;;;;;;12.63;5.97;;;0.60;99.90;;;-1.06;94.52;100610.06;6144025;23;20438;-79
2023/11/27 01:22:38;;;;;;;16.15;6.15;;;0.60;99.90;;;-1.04;94.89;100605.75;6067196;23;20377;-79
2023/11/27 01:25:30;;;;;;;20.05;6.10;;;0.60;99.90;;;-0.98;94.61;100597.13;6098016;23;20026;-81
2023/11/27 01:28:16;;;;;;;14.80;5.68;;;;;;;-0.98;94.96;100591.97;6007483;23;20022;-82
2023/11/27 01:31:33;;;;;;;;;;;;;;;;;;;;;
2023/11/27 01:34:08;;;;;;;16.77;6.28;;;;;;;-0.93;94.61;100590.22;5865048;24;20832;-80
2023/11/27 01:37:00;;;;;;;12.73;5.65;;;0.70;99.90;;;-0.90;94.60;100595.41;5899685;24;20024;-81
2023/11/27 01:39:36;;;;;;;16.17;6.22;;;0.70;99.90;;;-0.87;95.16;100592.81;5901947;24;20021;-80
2023/11/27 01:42:22;;;;;;;10.07;5.25;;;;;;;-0.81;95.44;100592.78;5893981;24;20030;-81
2023/11/27 01:45:17;;;;;;;13.68;5.55;;;0.80;99.90;;;-0.77;95.09;100598.84;5971645;22;20602;-79
2023/11/27 01:48:10;;;;;;;11.02;5.50;;;0.80;99.90;;;-0.76;94.48;100596.22;6107484;23;20672;-80
2023/11/27 01:50:51;;;;;;;11.07;5.70;;;;;;;-0.73;95.38;100587.63;5989439;23;20014;-80
2023/11/27 01:53:20;;;;;;;12.60;5.88;;;;;;;-0.72;95.41;100595.34;6004591;23;20058;-80
2023/11/27 01:56:14;;;;;;;16.27;6.20;;;;;;;-0.70;95.18;100583.28;5986612;23;20419;-80
2023/11/27 01:59:10;;;;;;;14.32;5.53;;;0.90;99.90;;;-0.68;94.86;100581.56;5940508;23;21476;-79
2023/11/27 02:04:28;;;;;;;14.15;5.93;;;0.90;99.90;;;-0.68;94.36;100570.34;6031062;22;20080;-81
2023/11/27 02:06:54;;;;;;;26.02;7.57;;;0.90;99.90;;;-0.68;94.45;100578.97;6120454;23;20017;-80
2023/11/27 02:09:29;;;;;;;14.73;5.90;;;;;;;-0.69;94.44;100576.38;6101376;23;20001;-79
2023/11/27 02:11:59;;;;;;;10.63;4.65;;;;;;;-0.72;94.62;100572.09;6224390;22;20093;-79
2023/11/27 02:14:40;;;;;;;9.98;5.47;;;0.80;99.90;;;-0.74;94.70;100566.06;6127544;22;20147;-80
2023/11/27 02:17:18;;;;;;;15.25;5.55;;;;;;;-0.77;94.77;100568.66;6163564;23;20038;-80
2023/11/27 02:20:10;;;;;;;14.18;5.97;;;;;;;-0.79;94.00;100565.22;6143779;23;20025;-80
2023/11/27 02:22:39;;;;;;;14.27;5.70;;;0.80;99.90;;;-0.80;94.04;100565.22;6101322;23;20020;-80
2023/11/27 02:25:19;;;;;;;10.40;5.80;;;;;;;-0.86;94.10;100546.28;6132984;22;20028;-80
2023/11/27 02:28:00;;;;;;;17.50;5.60;;;0.70;99.90;;;-0.88;94.48;100552.31;6127508;23;20020;-80
2023/11/27 02:30:49;;;;;;;10.75;5.57;;;0.70;99.90;;;-0.90;94.21;100549.72;6182046;22;20023;-79
2023/11/27 02:33:48;;;;;;;19.20;6.93;;;;;;;-0.93;93.83;100551.44;6159022;23;20024;-80
2023/11/27 02:36:16;;;;;;;13.15;5.78;;;0.60;99.90;;;-1.01;94.35;100546.31;5960203;23;20020;-80
2023/11/27 02:39:09;;;;;;;12.32;6.40;;;0.60;99.90;;;-1.09;93.98;100546.31;6034235;23;20546;-78
2023/11/27 02:42:00;;;;;;;;;;;;;;;;;;;;;
2023/11/27 02:44:30;;;;;;;16.70;6.85;;;0.50;99.90;;;-1.11;94.53;100550.63;5944969;23;20529;-79
2023/11/27 02:47:10;;;;;;;14.35;6.18;;;0.50;99.90;;;-1.10;94.46;100542.03;5900878;23;20377;-79
2023/11/27 02:49:52;;;;;;;17.80;6.13;;;;;;;-1.12;94.80;100540.31;5885683;23;20019;-79
2023/11/27 02:52:30;;;;;;;15.32;6.05;;;0.50;99.90;;;-1.12;94.29;100528.25;5917076;23;20046;-79
2023/11/27 02:55:08;;;;;;;12.43;6.03;;;0.50;99.90;;;-1.10;94.56;100530.81;5910371;23;20081;-79
2023/11/27 02:57:34;;;;;;;17.20;6.00;;;0.50;99.90;;;-1.08;94.70;100529.97;5929287;23;20294;-80
2023/11/27 03:00:00;;;;;;;11.35;5.30;;;0.50;99.90;;;-1.02;94.49;100539.41;5899994;23;20016;-79
2023/11/27 03:02:50;;;;;;;14.10;6.30;;;1.20;99.90;;;-1.01;94.21;100529.97;5892447;23;20028;-79
2023/11/27 03:05:30;;;;;;;13.30;6.22;;;;;;;-0.99;94.81;100529.09;5910939;23;20091;-80
2023/11/27 03:07:59;;;;;;;12.32;6.32;;;0.60;99.90;;;-0.95;94.77;100529.91;5919225;23;20019;-79
2023/11/27 03:10:38;;;;;;;12.18;6.53;;;0.60;99.90;;;-0.95;94.99;100519.56;5859758;23;20023;-80
2023/11/27 03:13:29;;;;;;;12.80;6.43;;;0.70;99.90;;;-0.93;94.69;100516.16;5966584;23;20362;-79
2023/11/27 03:16:09;;;;;;;14.43;5.88;;;0.70;99.90;;;-0.88;94.67;100519.56;6061831;23;20594;-80
2023/11/27 03:18:39;;;;;;;12.40;5.85;;;;;;;-0.89;94.52;100522.16;6074136;23;20027;-80
2023/11/27 03:21:30;;;;;;;14.35;5.68;;;;;;;-0.88;94.54;100513.56;6156285;23;20018;-80
2023/11/27 03:27:09;;;;;;;12.73;6.03;;;0.80;99.90;;;-0.83;94.92;100519.56;6143788;23;20235;-80
2023/11/27 03:29:20;;;;;;;9.48;5.55;;;;;;;-0.83;94.79;100509.22;6112522;23;20067;-79
2023/11/27 03:32:10;;;;;;;11.98;6.45;;;;;;;-0.81;94.38;100512.66;6106061;23;20021;-80
2023/11/27 03:34:50;;;;;;;10.93;6.05;;;0.80;99.90;;;-0.84;94.68;100508.34;6139574;23;20144;-80
2023/11/27 03:37:18;;;;;;;13.10;5.60;;;0.80;99.90;;;-0.79;94.37;100515.25;6039494;23;20085;-79
2023/11/27 03:39:54;;;;;;;;;;;;;;;;;;;;;
2023/11/27 03:42:21;;;;;;;10.63;6.15;;;0.80;99.90;;;-0.80;94.47;100506.59;5995042;23;20029;-79
2023/11/27 03:44:46;;;;;;;15.15;6.35;;;0.80;99.90;;;-0.79;94.98;100508.34;5924176;23;20034;-80
2023/11/27 03:47:58;;;;;;;12.48;6.20;;;;;;;-0.80;95.04;100503.16;6028195;23;20126;-79
2023/11/27 03:50:19;;;;;;;12.38;6.78;;;0.80;99.90;;;-0.88;94.27;100505.78;6022320;23;20018;-79
2023/11/27 03:53:20;;;;;;;;;;;0.80;99.90;;;-0.92;94.37;100504.94;6028480;23;20482;-80
2023/11/27 03:56:26;;;;;;;14.10;6.22;;;0.70;99.90;;;-0.95;95.07;100497.19;5913294;23;19917;-79
2023/11/27 03:58:52;;;;;;;18.52;6.35;;;;;;;-0.94;94.68;100498.06;5839286;24;20088;-80
2023/11/27 04:01:18;;;;;;;12.73;6.68;;;0.70;99.90;;;-0.96;95.03;100492.88;5831011;24;20111;-79
2023/11/27 04:03:44;;;;;;;16.55;7.22;;;;;;;-0.96;94.82;100495.47;5836800;24;20033;-80
2023/11/27 04:06:39;;;;;;;14.65;7.00;;;0.70;99.90;;;-0.93;94.91;100492.00;5848303;24;20029;-80
2023/11/27 04:09:29;;;;;;;18.50;6.15;;;;;;;-0.90;95.68;100503.19;5858053;24;20074;-80
2023/11/27 04:12:16;;;;;;;13.38;6.40;;;;;;;-0.87;95.27;100497.16;5832121;24;20075;-81
2023/11/27 04:14:54;;;;;;;15.60;6.05;;;0.70;99.90;;;-0.84;95.44;100497.16;5875482;24;20368;-80
2023/11/27 04:17:20;;;;;;;13.52;6.18;;;0.80;99.90;;;-0.85;95.52;100493.69;5866311;24;20053;-80
2023/11/27 04:20:30;;;;;;;13.10;6.50;;;0.80;99.90;;;-0.83;95.75;100497.13;5787763;24;20082;-80
2023/11/27 04:23:22;;;;;;;13.07;6.50;;;0.80;99.90;;;-0.81;95.42;100501.47;5849932;24;20134;-81
2023/11/27 04:25:47;;;;;;;13.30;5.95;;;0.80;99.90;;;-0.80;95.39;100505.75;6075069;22;20039;-81
2023/11/27 04:28:13;;;;;;;14.73;6.13;;;0.80;99.90;;;-0.79;95.65;100512.66;6184436;22;20020;-81
2023/11/27 04:30:49;;;;;;;14.00;6.43;;;0.80;99.90;;;-0.77;95.12;100503.16;6191956;22;20013;-80
2023/11/27 04:33:18;;;;;;;15.10;6.47;;;0.80;99.90;;;-0.74;95.65;100521.25;6143490;22;20523;-80
2023/11/27 04:35:59;;;;;;;12.05;6.28;;;0.80;99.90;;;-0.73;95.88;100517.81;6188125;22;20012;-80
2023/11/27 04:38:51;;;;;;;9.65;5.60;;;0.80;99.90;;;-0.76;95.53;100518.66;6166550;23;20128;-80
2023/11/27 04:41:20;;;;;;;10.15;5.75;;;0.80;99.90;;;-0.77;95.32;100508.34;6168758;22;20699;-80
2023/11/27 04:44:10;;;;;;;14.93;6.75;;;;;;;-0.77;95.68;100513.50;6216715;22;20416;-80
2023/11/27 04:46:39;;;;;;;15.07;6.95;;;;;;;-0.77;95.47;100510.94;6118048;23;20406;-81
2023/11/27 04:49:30;;;;;;;19.55;7.38;;;;;;;-0.75;96.15;100512.63;6138028;22;20380;-80
2023/11/27 04:52:10;;;;;;;16.25;6.70;;;0.90;99.90;;;-0.75;96.30;100507.47;6195841;22;20031;-81
2023/11/27 04:54:39;;;;;;;13.77;6.43;;;0.90;99.90;;;-0.71;95.72;100514.34;6163353;22;20091;-81
2023/11/27 04:57:21;;;;;;;11.95;6.70;;;;;;;-0.69;95.75;100509.16;6158463;23;20015;-81
2023/11/27 05:00:00;;;;;;;20.13;7.13;;;0.90;99.90;;;-0.69;96.20;100512.63;6156465;23;20127;-80
2023/11/27 05:02:38;;;;;;;18.98;7.32;;;0.90;99.90;;;-0.71;96.27;100501.41;6127330;22;20023;-81
2023/11/27 05:05:14;;;;;;;;;;;;;;;;;;;;;
2023/11/27 05:07:41;;;;;;;14.77;6.63;;;0.90;99.90;;;-0.68;96.41;100501.41;6166544;22;20344;-80
2023/11/27 05:10:08;;;;;;;21.13;6.60;;;0.90;99.90;;;-0.66;96.32;100507.41;6146777;22;20012;-80
2023/11/27 05:12:58;;;;;;;13.95;6.82;;;0.90;99.90;;;-0.65;96.37;100501.41;6188505;22;20435;-81
2023/11/27 05:15:27;;;;;;;16.40;7.07;;;;;;;-0.64;96.19;100504.84;6096269;23;20031;-81
2023/11/27 05:20:58;;;;;;;14.63;7.57;;;0.90;99.90;;;-0.63;96.48;100501.38;6006937;23;20400;-81
2023/11/27 05:23:52;;;;;;;;;;;;;;;;;;;;;
2023/11/27 05:26:31;;;;;;;;;;;;;;;;;;;;;
2023/11/27 05:29:00;;;;;;;16.33;7.32;;;1.00;99.90;;;-0.60;96.28;100497.91;6066577;23;22688;-80
2023/11/27 05:31:41;;;;;;;17.60;7.00;;;;;;;-0.62;96.48;100498.78;6063324;23;20048;-80
2023/11/27 05:34:20;;;;;;;15.52;7.75;;;;;;;-0.59;96.36;100492.72;6037289;23;20033;-80
2023/11/27 05:37:18;;;;;;;15.43;7.13;;;;;;;-0.56;96.79;100497.03;6095082;23;20018;-81
2023/11/27 05:40:00;;;;;;;14.20;7.15;;;1.00;99.90;;;-0.55;96.72;100494.44;5970014;23;20016;-81
2023/11/27 05:43:04;;;;;;;;;;;;;;;;;;;;;
2023/11/27 05:45:31;;;;;;;17.67;7.38;;;1.10;99.90;;;-0.56;96.28;100490.16;6104990;22;20103;-82
2023/11/27 05:48:31;;;;;;;16.48;7.25;;;1.00;99.90;;;-0.58;96.17;100484.13;6189830;22;20020;-81
2023/11/27 05:51:09;;;;;;;15.63;7.25;;;;;;;-0.57;96.76;100492.72;6082754;23;20025;-80
2023/11/27 05:54:01;;;;;;;17.90;8.00;;;;;;;-0.57;96.51;100482.38;6082723;23;20025;-81
2023/11/27 05:56:30;;;;;;;16.23;7.30;;;1.00;99.90;;;-0.56;96.17;100487.56;6022918;23;20025;-80
2023/11/27 05:59:28;;;;;;;18.42;7.43;;;;;;;-0.55;96.26;100478.91;6013194;23;20018;-80
2023/11/27 06:02:22;;;;;;;16.20;7.22;;;1.00;99.90;;;-0.54;96.75;100484.94;6008079;23;20413;-82
2023/11/27 06:05:20;;;;;;;21.92;7.45;;;1.00;99.90;;;-0.55;96.37;100483.25;6012245;23;20026;-81
2023/11/27 06:08:11;;;;;;;15.00;7.22;;;1.00;99.90;;;-0.55;96.25;100472.91;6013116;23;20015;-81
2023/11/27 06:10:39;;;;;;;16.90;7.22;;;1.00;99.90;;;-0.54;95.95;100479.78;5894244;23;20372;-80
2023/11/27 06:13:20;;;;;;;14.70;7.05;;;1.00;99.90;;;-0.55;96.11;100485.81;5945194;23;20011;-82
2023/11/27 06:16:11;;;;;;;18.05;8.07;;;1.00;99.90;;;-0.55;96.05;100483.25;5914531;23;20331;-81
2023/11/27 06:18:40;;;;;;;18.30;8.00;;;1.00;99.90;;;-0.56;96.47;100481.50;5916033;23;20012;-80
2023/11/27 06:21:30;;;;;;;16.13;8.38;;;1.00;99.90;;;-0.55;96.15;100480.66;5912716;23;20012;-81
2023/11/27 06:23:59;;;;;;;16.83;8.00;;;1.00;99.90;;;-0.57;95.92;100475.47;5910090;23;20020;-80
2023/11/27 06:26:48;;;;;;;16.30;8.45;;;1.00;99.90;;;-0.55;96.00;100481.50;5886280;23;20026;-81
2023/11/27 06:29:16;;;;;;;17.35;8.73;;;1.00;99.90;;;-0.52;96.01;100484.09;5989130;23;20039;-82
2023/11/27 06:31:42;;;;;;;18.95;7.90;;;1.00;99.90;;;-0.54;95.91;100483.25;5996844;23;20028;-80
2023/11/27 06:34:08;;;;;;;15.82;8.55;;;1.10;99.90;;;-0.55;95.75;100472.91;5964601;23;20020;-80
2023/11/27 06:37:03;;;;;;;18.48;7.93;;;1.00;99.90;;;-0.53;95.85;100473.75;5992198;23;20049;-80
2023/11/27 06:39:38;;;;;;;17.35;7.78;;;;;;;-0.52;95.96;100480.63;6011795;23;20022;-81
2023/11/27 06:42:05;;;;;;;17.40;7.95;;;1.10;99.90;;;-0.55;96.18;100467.72;6029436;23;20054;-80
2023/11/27 06:44:30;;;;;;;20.48;7.45;;;1.10;99.90;;;-0.53;95.75;100479.78;6035207;23;20017;-78
2023/11/27 06:47:10;;;;;;;21.25;7.88;;;;;;;-0.51;95.75;100477.19;6085277;23;20019;-80
2023/11/27 06:49:47;;;;;;;18.50;8.13;;;1.10;99.90;;;-0.52;95.97;100475.47;6105897;23;20076;-79
2023/11/27 06:52:13;;;;;;;15.15;7.90;;;1.10;99.90;;;-0.50;95.92;100481.47;6083121;23;20029;-80
2023/11/27 06:54:39;;;;;;;17.58;8.95;;;1.10;99.90;;;-0.51;96.03;100483.22;6120006;23;20013;-80
2023/11/27 06:57:10;;;;;;;25.33;9.00;;;1.10;99.90;;;-0.50;96.00;100484.06;6043296;23;20009;-80
2023/11/27 06:59:39;;;;;;;19.88;7.93;;;1.00;99.90;;;-0.53;95.57;100481.50;6052423;23;20649;-80
2023/11/27 07:02:08;;;;;;;17.90;7.88;;;;;;;-0.52;95.76;100478.94;6037068;23;20024;-78
2023/11/27 07:05:50;;;;;;;19.95;8.88;;;1.10;99.90;;;-0.54;96.11;100480.66;6052884;23;20060;-80
2023/11/27 07:08:29;;;;;;;15.20;7.78;;;;;;;-0.53;95.67;100481.50;5945097;23;20015;-80
2023/11/27 07:10:55;;;;;;;19.80;7.97;;;;;;;-0.53;95.70;100482.38;5954379;23;20186;-80
2023/11/27 07:13:29;;;;;;;17.50;7.95;;;;;;;-0.52;96.43;100481.50;6029707;23;20033;-78
2023/11/27 07:15:58;;;;;;;24.67;8.32;;;;;;;-0.51;95.57;100480.63;5981311;23;20134;-80
2023/11/27 07:18:39;;;;;;;14.07;7.80;;;1.10;99.90;;;-0.49;96.02;100478.03;5970354;23;20025;-79
2023/11/27 07:21:20;;;;;;;17.40;7.95;;;1.10;99.90;;;-0.46;96.27;100473.69;6043079;23;20026;-80
2023/11/27 07:23:58;;;;;;;16.02;9.27;;;;;;;-0.47;95.80;100476.31;6045536;23;20045;-79
2023/11/27 07:26:24;;;;;;;16.45;7.55;;;1.10;99.90;;;-0.46;96.34;100480.59;6017442;23;20019;-80
2023/11/27 07:29:00;;;;;;;16.02;8.10;;;1.10;99.90;;;-0.42;96.17;100470.22;6038207;23;20034;-79
2023/11/27 07:31:38;;;;;;;17.77;8.48;;;1.10;99.90;;;-0.40;95.99;100465.06;5977864;23;20014;-79
2023/11/27 07:34:21;;;;;;;18.83;7.93;;;1.20;99.90;;;-0.33;95.96;100471.03;5963845;23;20423;-80
2023/11/27 07:36:58;;;;;;;16.67;8.20;;;1.20;99.90;;;-0.31;96.03;100464.13;5954901;23;20015;-79
2023/11/27 07:39:25;;;;;;;16.80;7.38;;;1.30;99.90;;;-0.27;96.42;100461.50;6059029;23;20021;-81
2023/11/27 07:41:51;;;;;;;14.38;7.35;;;1.30;99.90;;;-0.25;96.06;100464.94;6025082;23;20014;-80
2023/11/27 07:44:26;;;;;;;12.68;7.10;;;1.30;99.90;;;-0.23;96.27;100459.78;6094852;23;20013;-81
2023/11/27 07:46:52;;;;;;;13.93;7.60;;;1.30;99.90;;;-0.22;96.10;100451.13;6165754;23;20020;-80
2023/11/27 07:49:19;;;;;;;15.77;6.95;;;1.30;99.90;;;-0.18;96.47;100459.75;6136499;23;20669;-81
2023/11/27 07:51:44;;;;;;;16.40;7.57;;;1.40;99.90;;;-0.15;96.33;100463.19;6104200;23;20020;-81
2023/11/27 07:54:20;;;;;;;14.55;7.15;;;;;;;-0.13;95.82;100461.44;6134711;23;20441;-81
2023/11/27 07:56:46;;;;;;;15.82;7.70;;;1.40;99.90;;;-0.13;96.16;100460.56;6140179;23;20224;-80
2023/11/27 07:59:11;;;;;;;15.52;7.55;;;1.40;99.90;;;-0.13;95.80;100455.38;6110214;23;20009;-80
2023/11/27 08:01:49;;;;;;;18.40;8.18;;;;;;;-0.11;95.71;100453.63;6097699;23;20062;-81
2023/11/27 08:04:15;;;;;;;14.60;7.65;;;1.50;99.90;;;-0.09;95.69;100457.94;6162257;23;20047;-80
2023/11/27 08:06:46;;;;;;;15.43;7.53;;;1.50;99.90;;;-0.03;95.97;100457.03;6187754;23;20104;-80
2023/11/27 08:09:11;;;;;;;16.08;7.53;;;1.50;99.90;;;0.00;96.06;100451.84;6133221;23;20022;-79
2023/11/27 08:11:37;;;;;;;21.45;8.23;;;1.50;99.90;;;0.04;95.73;100456.13;6123138;23;22029;-80
2023/11/27 08:14:03;;;;;;;16.42;7.70;;;1.60;99.90;;;0.11;96.02;100451.75;6108566;23;20008;-81
2023/11/27 08:16:29;;;;;;;18.08;8.68;;;1.60;99.90;;;0.15;95.80;100451.72;6080301;23;20411;-80
2023/11/27 08:18:55;;;;;;;18.90;8.18;;;1.70;99.90;;;0.23;95.86;100448.22;6122687;23;20538;-81
2023/11/27 08:21:30;;;;;;;18.63;8.52;;;1.70;99.90;;;0.27;95.77;100452.50;6137633;22;20021;-79
2023/11/27 08:23:56;;;;;;;14.45;7.40;;;1.80;99.90;;;0.31;95.59;100449.84;6087524;23;20461;-80
2023/11/27 08:26:22;;;;;;;14.63;7.60;;;1.80;99.90;;;0.37;95.65;100448.97;6133153;23;20024;-80
2023/11/27 08:28:48;;;;;;;18.40;8.93;;;1.90;99.90;;;0.42;95.28;100454.09;6131971;23;20495;-81
2023/11/27 08:31:21;;;;;;;17.95;8.82;;;1.90;99.90;;;0.47;95.52;100457.47;6183117;23;20095;-80
2023/11/27 08:33:48;;;;;;;16.80;8.25;;;2.70;99.90;;;0.51;95.25;100454.00;6125050;23;20020;-80
2023/11/27 08:36:14;;;;;;;18.00;8.10;;;2.00;99.90;;;0.54;95.10;100456.53;6136633;23;20396;-80
2023/11/27 08:38:40;;;;;;;16.48;8.07;;;2.00;99.90;;;0.54;94.84;100454.84;6175384;23;20110;-79
2023/11/27 08:41:11;;;;;;;18.80;8.43;;;2.00;99.90;;;0.53;94.52;100447.91;6128447;23;20040;-79
2023/11/27 08:43:40;;;;;;;17.00;8.35;;;2.00;99.90;;;0.53;94.63;100450.50;6096375;23;20021;-81
2023/11/27 08:46:16;;;;;;;18.77;8.70;;;2.00;99.90;;;0.57;94.01;100446.16;6125019;23;20016;-79
2023/11/27 08:48:41;;;;;;;17.38;8.38;;;2.10;99.90;;;0.58;94.06;100453.94;6158964;23;20061;-81
2023/11/27 08:51:11;;;;;;;18.45;8.25;;;2.10;99.90;;;0.60;94.12;100444.41;6138247;23;20028;-83
2023/11/27 08:54:20;;;;;;;15.85;8.60;;;2.10;99.90;;;0.64;93.98;100447.81;6111706;23;20364;-82
2023/11/27 08:57:01;;;;;;;19.30;8.25;;;;;;;0.69;94.00;100442.56;6065533;23;20014;-83
2023/11/27 08:59:39;;;;;;;16.95;8.25;;;;;;;0.75;94.13;100445.09;6023764;23;20027;-84
2023/11/27 09:02:22;;;;;;;17.65;8.68;;;2.30;99.90;;;0.79;93.52;100445.06;6060820;23;20306;-84
2023/11/27 09:05:01;;;;;;;17.95;8.43;;;2.30;99.90;;;0.82;93.64;100436.38;6033814;23;20025;-82
2023/11/27 09:07:40;;;;;;;13.95;7.63;;;;;;;0.94;93.83;100438.00;6077355;23;20018;-84
2023/11/27 09:10:52;;;;;;;15.43;8.05;;;;;;;0.98;93.76;100435.34;6071164;23;20018;-84
2023/11/27 09:13:30;;;;;;;15.50;7.82;;;;;;;0.98;93.43;100434.50;6065893;23;20017;-84
2023/11/27 09:16:00;;;;;;;14.82;8.15;;;2.50;99.90;;;0.99;93.42;100428.41;6088465;23;20100;-82
2023/11/27 09:18:38;;;;;;;14.85;7.45;;;2.50;99.90;;;1.03;93.72;100422.31;6052708;23;20406;-84
2023/11/27 09:24:00;;;;;;;9.02;6.07;;;;;;;1.15;93.48;100431.69;6087438;23;20018;-83
2023/11/27 09:30:39;;;;;;;13.55;6.95;;;2.70;99.90;;;1.22;93.34;100433.31;6039235;23;20045;-84
2023/11/27 09:33:50;;;;;;;11.18;6.60;;;;;;;1.28;93.01;100430.66;6024485;23;20019;-83
2023/11/27 09:36:42;;;;;;;11.10;6.35;;;2.80;99.90;;;1.34;93.40;100433.16;6058415;23;20362;-84
2023/11/27 09:39:10;;;;;;;12.95;6.22;;;2.80;99.90;;;1.37;93.25;100427.06;6029854;23;20015;-83
2023/11/27 09:48:08;;;;;;;14.90;5.15;;;3.60;99.90;;;1.54;92.97;100430.28;6157635;23;20465;-82
2023/11/27 09:50:49;;;;;;;13.18;5.97;;;3.10;99.90;;;1.61;92.66;100433.66;6149814;23;20013;-82
2023/11/27 09:53:40;;;;;;;11.27;5.97;;;3.10;99.90;;;1.69;92.33;100426.63;6057272;23;20010;-84
2023/11/27 09:56:14;;;;;;;10.80;4.78;;;3.20;99.90;;;1.80;92.00;100424.72;5991806;23;20038;-84
2023/11/27 09:59:11;;;;;;;13.05;4.53;;;3.30;99.90;;;1.83;91.47;100427.25;6011132;23;20545;-82
2023/11/27 10:02:03;;;;;;;8.88;4.70;;;;;;;1.93;91.48;100429.72;5918383;23;20024;-83
2023/11/27 10:04:42;;;;;;;17.30;10.07;;;3.40;99.90;;;1.99;91.24;100432.22;5960738;22;20043;-83
2023/11/27 10:07:09;;;;;;;10.82;5.72;;;;;;;2.00;90.48;100428.72;6209221;23;20174;-83
2023/11/27 10:13:18;;;;;;;11.85;7.55;;;3.50;99.90;;;2.00;89.61;100426.97;6076046;23;20034;-83
2023/11/27 10:15:58;;;;;;;10.32;5.13;;;;;;;1.97;89.03;100432.25;6112428;23;20028;-84
2023/11/27 10:22:11;;;;;;;7.25;3.17;;;;;;;1.92;88.51;100422.78;6092350;23;20065;-88
2023/11/27 10:28:59;;;;;;;7.38;3.60;;;3.40;99.90;;;1.95;87.99;100414.97;5958544;23;20507;-89
2023/11/27 10:35:12;;;;;;;8.15;3.40;;;;;;;1.97;87.42;100411.47;6024251;22;20020;-89
2023/11/27 10:41:32;;;;;;;10.20;4.25;;;3.60;99.90;;;2.26;87.14;100405.75;6143216;23;20052;-89
2023/11/27 10:43:59;;;;;;;4.88;2.85;;;;;;;2.45;86.83;100397.66;6033338;23;20283;-89
2023/11/27 10:47:42;;;;;;;5.25;2.53;;;3.90;99.90;;;2.64;86.58;100396.41;6046806;23;20063;-90
2023/11/27 10:50:08;;;;;;;5.93;2.50;;;;;;;2.84;86.18;100402.97;5908939;24;20028;-87
2023/11/27 10:56:10;;;;;;;3.90;2.35;;;;;;;2.93;84.43;100400.19;6078584;22;20364;-87
2023/11/27 10:59:22;;;;;;;5.47;2.50;;;4.30;99.90;;;2.99;83.63;100396.59;6234209;22;20031;-89
2023/11/27 11:27:16;;;;;;;2.65;1.33;;;4.40;99.90;;;3.05;80.46;100366.13;6228877;22;20062;-90
2023/11/27 11:30:50;;;;;;;;;;;;;;;;;;;;;
2023/11/27 11:50:41;;;;;;;3.53;2.00;;;;;;;3.19;79.23;100346.75;6206527;22;20497;-90
2023/11/27 12:54:01;;;;;;;;;;;;;;;;;;;;;
2023/11/27 14:00:52;;;;;;;1.65;1.05;;;3.50;99.90;;;1.94;78.44;100215.91;6107685;23;20021;-89
2023/11/27 14:14:58;;;;;;;;;;;;;;;;;;;;;
2023/11/27 14:34:23;;;;;;;;;;;;;;;;;;;;;
2023/11/27 14:37:08;;;;;;;9.18;1.10;;;;;;;0.98;80.01;100185.59;6008985;23;20273;-88
2023/11/27 14:40:33;;;;;;;2.15;1.08;;;2.50;99.90;;;0.90;80.30;100172.75;5941257;23;20023;-88
2023/11/27 14:43:13;;;;;;;3.95;0.93;;;2.40;99.90;;;0.84;80.31;100172.84;5932478;23;20024;-89
2023/11/27 15:20:52;;;;;;;3.65;1.40;;;;;;;-0.18;82.18;100125.91;6085268;23;20264;-90
2023/11/27 15:23:59;;;;;;;4.03;1.73;;;1.40;99.90;;;-0.23;82.03;100132.00;6063643;23;20655;-87
2023/11/27 15:26:41;;;;;;;3.17;1.70;;;;;;;-0.32;82.37;100123.50;5951505;23;20023;-88
2023/11/27 15:33:05;;;;;;;6.13;2.10;;;1.20;99.90;;;-0.48;81.91;100123.66;5878749;24;20031;-87
2023/11/27 15:35:30;;;;;;;8.10;2.80;;;1.10;99.90;;;-0.53;82.36;100119.44;5799185;24;20022;-87
2023/11/27 15:38:42;;;;;;;11.13;3.00;;;;;;;-0.58;82.90;100113.44;5773524;24;20025;-89
2023/11/27 15:41:43;;;;;;;7.03;3.38;;;1.00;99.90;;;-0.65;82.40;100107.47;5809987;24;20439;-86
2023/11/27 15:44:21;;;;;;;7.03;3.50;;;;;;;-0.68;83.24;100103.19;5777888;24;20021;-87
2023/11/27 15:47:33;;;;;;;5.90;2.95;;;;;;;-0.72;83.02;100098.94;5817265;24;20097;-87
2023/11/27 15:50:13;;;;;;;8.80;2.75;;;;;;;-0.76;82.96;100089.47;5754319;24;20039;-87
2023/11/27 15:53:20;;;;;;;7.00;2.72;;;;;;;-0.79;82.87;100091.25;5850190;24;20015;-86
2023/11/27 15:55:59;;;;;;;7.03;2.55;;;;;;;-0.83;83.34;100080.09;6052194;22;20023;-89
2023/11/27 15:58:41;;;;;;;6.05;2.47;;;;;;;-0.86;83.50;100086.16;6155038;22;20039;-86
2023/11/27 16:01:52;;;;;;;4.88;2.15;;;;;;;-0.89;83.44;100078.41;6230996;22;20022;-87
2023/11/27 16:04:22;;;;;;;5.25;2.05;;;;;;;-0.93;83.54;100076.75;6121160;23;20589;-87
2023/11/27 16:07:10;;;;;;;6.32;2.80;;;0.70;99.90;;;-0.96;83.50;100074.19;6096655;23;20088;-87
2023/11/27 16:09:41;;;;;;;4.90;2.47;;;;;;;-0.99;83.52;100074.22;6106639;23;20686;-86
2023/11/27 16:16:43;;;;;;;;;;;;;;;;;;;;;
2023/11/27 16:19:34;;;;;;;4.97;2.47;;;;;;;-1.17;84.18;100074.38;6060571;23;20014;-89
2023/11/27 16:22:39;;;;;;;4.22;2.35;;;0.50;99.90;;;-1.23;83.63;100065.00;6060658;23;20459;-85
2023/11/27 16:25:21;;;;;;;6.47;3.20;;;;;;;-1.27;84.28;100058.13;6098439;23;20093;-87
2023/11/27 16:31:32;;;;;;;5.07;2.30;;;;;;;-1.37;84.04;100047.00;5888392;24;20516;-88
2023/11/27 16:37:28;;;;;;;8.88;2.63;;;0.20;99.90;;;-1.46;84.25;100036.75;5797379;24;20021;-86
2023/11/27 16:40:09;;;;;;;4.43;2.60;;;;;;;-1.50;84.32;100035.94;5776105;24;20020;-87
2023/11/27 16:42:42;;;;;;;6.47;2.88;;;;;;;-1.55;84.86;100029.97;5785047;24;20145;-88
2023/11/27 16:45:10;;;;;;;7.40;3.67;;;;;;;-1.60;84.93;100028.28;5957832;22;20103;-88
2023/11/27 16:48:03;;;;;;;7.80;3.55;;;0.00;99.90;;;-1.68;84.99;100020.59;6116791;23;20013;-86